sensor_id;sensor_type;location;lat;lon;timestamp;P1;durP1;ratioP1;P2;durP2;ratioP2
48987;SDS011;34799;51.440;-2.534;2022-11-15T00:02:20;5.40;;;0.35;;
48987;SDS011;34799;51.440;-2.534;2022-11-15T00:05:06;8.05;;;0.45;;
48987;SDS011;34799;51.440;-2.534;2022-11-15T00:07:52;8.43;;;0.80;;
48987;SDS011;34799;51.440;-2.534;2022-11-15T00:10:40;11.98;;;0.93;;
48987;SDS011;34799;51.440;-2.534;2022-11-15T00:13:26;5.37;;;0.20;;
48987;SDS011;34799;51.440;-2.534;2022-11-15T00:16:12;10.73;;;0.50;;
48987;SDS011;34799;51.440;-2.534;2022-11-15T00:18:59;6.53;;;0.50;;
48987;SDS011;34799;51.440;-2.534;2022-11-15T00:21:45;9.80;;;1.05;;
48987;SDS011;34799;51.440;-2.534;2022-11-15T00:24:31;7.32;;;1.75;;
48987;SDS011;34799;51.440;-2.534;2022-11-15T00:27:18;10.13;;;1.55;;
48987;SDS011;34799;51.440;-2.534;2022-11-15T00:30:04;4.63;;;0.35;;
48987;SDS011;34799;51.440;-2.534;2022-11-15T00:32:52;7.32;;;0.57;;
48987;SDS011;34799;51.440;-2.534;2022-11-15T00:35:37;7.75;;;0.40;;
48987;SDS011;34799;51.440;-2.534;2022-11-15T00:38:23;4.28;;;0.30;;
48987;SDS011;34799;51.440;-2.534;2022-11-15T00:41:11;6.75;;;0.40;;
48987;SDS011;34799;51.440;-2.534;2022-11-15T00:43:57;7.97;;;1.20;;
48987;SDS011;34799;51.440;-2.534;2022-11-15T00:46:43;8.40;;;0.50;;
48987;SDS011;34799;51.440;-2.534;2022-11-15T00:49:29;10.63;;;0.73;;
48987;SDS011;34799;51.440;-2.534;2022-11-15T00:52:16;5.38;;;0.80;;
48987;SDS011;34799;51.440;-2.534;2022-11-15T00:55:02;7.13;;;0.50;;
48987;SDS011;34799;51.440;-2.534;2022-11-15T00:57:48;8.68;;;0.50;;
48987;SDS011;34799;51.440;-2.534;2022-11-15T01:00:35;8.95;;;0.88;;
48987;SDS011;34799;51.440;-2.534;2022-11-15T01:03:22;9.25;;;1.02;;
48987;SDS011;34799;51.440;-2.534;2022-11-15T01:06:08;7.10;;;0.28;;
48987;SDS011;34799;51.440;-2.534;2022-11-15T01:08:54;11.65;;;0.68;;
48987;SDS011;34799;51.440;-2.534;2022-11-15T01:11:42;11.35;;;0.85;;
48987;SDS011;34799;51.440;-2.534;2022-11-15T01:14:28;7.90;;;0.90;;
48987;SDS011;34799;51.440;-2.534;2022-11-15T01:17:14;7.35;;;0.40;;
48987;SDS011;34799;51.440;-2.534;2022-11-15T01:20:00;8.17;;;0.43;;
48987;SDS011;34799;51.440;-2.534;2022-11-15T01:22:47;10.80;;;1.27;;
48987;SDS011;34799;51.440;-2.534;2022-11-15T01:25:33;13.63;;;0.40;;
48987;SDS011;34799;51.440;-2.534;2022-11-15T01:28:20;12.73;;;1.10;;
48987;SDS011;34799;51.440;-2.534;2022-11-15T01:31:06;11.02;;;1.17;;
48987;SDS011;34799;51.440;-2.534;2022-11-15T01:33:56;7.25;;;0.50;;
48987;SDS011;34799;51.440;-2.534;2022-11-15T01:36:42;7.23;;;0.70;;
48987;SDS011;34799;51.440;-2.534;2022-11-15T01:39:28;6.75;;;0.40;;
48987;SDS011;34799;51.440;-2.534;2022-11-15T01:42:15;5.88;;;0.47;;
48987;SDS011;34799;51.440;-2.534;2022-11-15T01:45:02;10.05;;;0.70;;
48987;SDS011;34799;51.440;-2.534;2022-11-15T01:47:50;4.68;;;0.40;;
48987;SDS011;34799;51.440;-2.534;2022-11-15T01:50:39;2.90;;;0.40;;
48987;SDS011;34799;51.440;-2.534;2022-11-15T01:53:25;4.70;;;0.50;;
48987;SDS011;34799;51.440;-2.534;2022-11-15T01:56:14;7.25;;;0.50;;
48987;SDS011;34799;51.440;-2.534;2022-11-15T01:59:05;12.45;;;0.50;;
48987;SDS011;34799;51.440;-2.534;2022-11-15T02:01:53;9.52;;;0.70;;
48987;SDS011;34799;51.440;-2.534;2022-11-15T02:04:40;5.55;;;0.65;;
48987;SDS011;34799;51.440;-2.534;2022-11-15T02:07:29;7.28;;;1.08;;
48987;SDS011;34799;51.440;-2.534;2022-11-15T02:10:17;9.63;;;1.10;;
48987;SDS011;34799;51.440;-2.534;2022-11-15T02:13:06;5.95;;;0.47;;
48987;SDS011;34799;51.440;-2.534;2022-11-15T02:18:43;9.02;;;0.73;;
48987;SDS011;34799;51.440;-2.534;2022-11-15T02:38:46;4.10;;;0.38;;
48987;SDS011;34799;51.440;-2.534;2022-11-15T02:41:45;5.50;;;0.52;;
48987;SDS011;34799;51.440;-2.534;2022-11-15T02:45:30;6.90;;;0.45;;
48987;SDS011;34799;51.440;-2.534;2022-11-15T02:48:18;9.68;;;0.85;;
48987;SDS011;34799;51.440;-2.534;2022-11-15T02:51:04;5.75;;;1.45;;
48987;SDS011;34799;51.440;-2.534;2022-11-15T02:53:52;4.80;;;0.55;;
48987;SDS011;34799;51.440;-2.534;2022-11-15T02:56:39;5.75;;;0.25;;
48987;SDS011;34799;51.440;-2.534;2022-11-15T03:11:11;3.53;;;0.32;;
48987;SDS011;34799;51.440;-2.534;2022-11-15T03:17:30;3.33;;;0.33;;
48987;SDS011;34799;51.440;-2.534;2022-11-15T03:20:09;3.53;;;0.20;;
48987;SDS011;34799;51.440;-2.534;2022-11-15T03:23:01;2.28;;;0.80;;
48987;SDS011;34799;51.440;-2.534;2022-11-15T03:25:51;3.58;;;0.30;;
48987;SDS011;34799;51.440;-2.534;2022-11-15T03:28:42;1.30;;;0.10;;
48987;SDS011;34799;51.440;-2.534;2022-11-15T03:31:45;4.53;;;0.22;;
48987;SDS011;34799;51.440;-2.534;2022-11-15T03:34:47;1.48;;;0.20;;
48987;SDS011;34799;51.440;-2.534;2022-11-15T03:38:15;1.17;;;0.10;;
48987;SDS011;34799;51.440;-2.534;2022-11-15T03:41:19;1.27;;;0.10;;
48987;SDS011;34799;51.440;-2.534;2022-11-15T03:44:15;2.72;;;0.10;;
48987;SDS011;34799;51.440;-2.534;2022-11-15T03:47:31;0.95;;;0.05;;
48987;SDS011;34799;51.440;-2.534;2022-11-15T03:50:22;1.40;;;0.10;;
48987;SDS011;34799;51.440;-2.534;2022-11-15T03:53:09;0.35;;;0.10;;
48987;SDS011;34799;51.440;-2.534;2022-11-15T03:55:55;2.05;;;0.00;;
48987;SDS011;34799;51.440;-2.534;2022-11-15T03:58:43;0.57;;;0.00;;
48987;SDS011;34799;51.440;-2.534;2022-11-15T04:04:14;2.72;;;0.10;;
48987;SDS011;34799;51.440;-2.534;2022-11-15T04:07:00;2.25;;;0.10;;
48987;SDS011;34799;51.440;-2.534;2022-11-15T04:12:48;1.55;;;0.10;;
48987;SDS011;34799;51.440;-2.534;2022-11-15T04:15:36;0.60;;;0.00;;
48987;SDS011;34799;51.440;-2.534;2022-11-15T04:18:28;3.10;;;0.10;;
48987;SDS011;34799;51.440;-2.534;2022-11-15T04:21:14;1.73;;;0.03;;
48987;SDS011;34799;51.440;-2.534;2022-11-15T04:24:19;2.33;;;0.17;;
48987;SDS011;34799;51.440;-2.534;2022-11-15T04:27:05;1.13;;;0.10;;
48987;SDS011;34799;51.440;-2.534;2022-11-15T04:29:51;2.10;;;0.00;;
48987;SDS011;34799;51.440;-2.534;2022-11-15T04:32:37;0.98;;;0.13;;
48987;SDS011;34799;51.440;-2.534;2022-11-15T04:35:23;0.70;;;0.00;;
48987;SDS011;34799;51.440;-2.534;2022-11-15T04:38:12;0.00;;;0.00;;
48987;SDS011;34799;51.440;-2.534;2022-11-15T04:40:58;2.92;;;0.10;;
48987;SDS011;34799;51.440;-2.534;2022-11-15T04:43:44;1.50;;;0.00;;
48987;SDS011;34799;51.440;-2.534;2022-11-15T04:46:30;0.73;;;0.57;;
48987;SDS011;34799;51.440;-2.534;2022-11-15T04:49:17;0.57;;;0.10;;
48987;SDS011;34799;51.440;-2.534;2022-11-15T04:52:03;0.20;;;0.00;;
48987;SDS011;34799;51.440;-2.534;2022-11-15T04:54:49;0.43;;;0.00;;
48987;SDS011;34799;51.440;-2.534;2022-11-15T04:57:34;1.88;;;0.00;;
48987;SDS011;34799;51.440;-2.534;2022-11-15T05:00:22;0.40;;;0.00;;
48987;SDS011;34799;51.440;-2.534;2022-11-15T05:03:08;1.35;;;0.00;;
48987;SDS011;34799;51.440;-2.534;2022-11-15T05:06:13;2.00;;;0.00;;
48987;SDS011;34799;51.440;-2.534;2022-11-15T05:08:59;1.65;;;0.03;;
48987;SDS011;34799;51.440;-2.534;2022-11-15T05:11:47;1.27;;;0.08;;
48987;SDS011;34799;51.440;-2.534;2022-11-15T05:14:33;0.65;;;0.08;;
48987;SDS011;34799;51.440;-2.534;2022-11-15T05:17:19;1.05;;;0.08;;
48987;SDS011;34799;51.440;-2.534;2022-11-15T05:20:05;0.88;;;0.00;;
48987;SDS011;34799;51.440;-2.534;2022-11-15T05:22:52;1.13;;;0.10;;
48987;SDS011;34799;51.440;-2.534;2022-11-15T05:25:40;2.08;;;0.10;;
48987;SDS011;34799;51.440;-2.534;2022-11-15T05:28:26;0.77;;;0.00;;
48987;SDS011;34799;51.440;-2.534;2022-11-15T05:31:14;4.25;;;0.10;;
48987;SDS011;34799;51.440;-2.534;2022-11-15T05:34:00;1.38;;;0.10;;
48987;SDS011;34799;51.440;-2.534;2022-11-15T05:36:50;4.25;;;0.38;;
48987;SDS011;34799;51.440;-2.534;2022-11-15T05:39:36;4.22;;;0.10;;
48987;SDS011;34799;51.440;-2.534;2022-11-15T05:42:22;2.70;;;0.10;;
48987;SDS011;34799;51.440;-2.534;2022-11-15T05:45:09;2.35;;;0.10;;
48987;SDS011;34799;51.440;-2.534;2022-11-15T05:47:55;1.85;;;0.10;;
48987;SDS011;34799;51.440;-2.534;2022-11-15T05:50:43;2.90;;;0.10;;
48987;SDS011;34799;51.440;-2.534;2022-11-15T05:53:32;2.47;;;0.10;;
48987;SDS011;34799;51.440;-2.534;2022-11-15T05:56:18;2.22;;;0.45;;
48987;SDS011;34799;51.440;-2.534;2022-11-15T05:59:04;3.60;;;0.17;;
48987;SDS011;34799;51.440;-2.534;2022-11-15T06:01:52;1.80;;;0.10;;
48987;SDS011;34799;51.440;-2.534;2022-11-15T06:04:38;1.73;;;0.20;;
48987;SDS011;34799;51.440;-2.534;2022-11-15T06:07:24;2.37;;;0.30;;
48987;SDS011;34799;51.440;-2.534;2022-11-15T06:10:10;2.53;;;0.20;;
48987;SDS011;34799;51.440;-2.534;2022-11-15T06:15:47;0.85;;;0.10;;
48987;SDS011;34799;51.440;-2.534;2022-11-15T06:18:34;0.50;;;0.00;;
48987;SDS011;34799;51.440;-2.534;2022-11-15T06:21:20;0.55;;;0.20;;
48987;SDS011;34799;51.440;-2.534;2022-11-15T06:24:06;4.03;;;0.20;;
48987;SDS011;34799;51.440;-2.534;2022-11-15T06:26:52;1.45;;;0.00;;
48987;SDS011;34799;51.440;-2.534;2022-11-15T06:29:39;2.42;;;0.10;;
48987;SDS011;34799;51.440;-2.534;2022-11-15T06:32:25;1.35;;;0.10;;
48987;SDS011;34799;51.440;-2.534;2022-11-15T06:35:11;0.80;;;0.15;;
48987;SDS011;34799;51.440;-2.534;2022-11-15T06:38:01;0.75;;;0.08;;
48987;SDS011;34799;51.440;-2.534;2022-11-15T06:40:51;0.80;;;0.10;;
48987;SDS011;34799;51.440;-2.534;2022-11-15T06:43:37;0.20;;;0.00;;
48987;SDS011;34799;51.440;-2.534;2022-11-15T06:46:23;1.23;;;0.10;;
48987;SDS011;34799;51.440;-2.534;2022-11-15T06:49:09;3.80;;;0.40;;
48987;SDS011;34799;51.440;-2.534;2022-11-15T06:51:54;5.40;;;0.95;;
48987;SDS011;34799;51.440;-2.534;2022-11-15T06:54:42;4.90;;;0.10;;
48987;SDS011;34799;51.440;-2.534;2022-11-15T06:57:28;0.55;;;0.10;;
48987;SDS011;34799;51.440;-2.534;2022-11-15T07:00:14;6.65;;;0.20;;
48987;SDS011;34799;51.440;-2.534;2022-11-15T07:03:01;0.45;;;0.00;;
48987;SDS011;34799;51.440;-2.534;2022-11-15T07:05:51;2.33;;;0.25;;
48987;SDS011;34799;51.440;-2.534;2022-11-15T07:08:43;2.78;;;0.45;;
48987;SDS011;34799;51.440;-2.534;2022-11-15T07:17:04;1.08;;;0.17;;
48987;SDS011;34799;51.440;-2.534;2022-11-15T07:19:50;4.38;;;0.30;;
48987;SDS011;34799;51.440;-2.534;2022-11-15T07:22:36;1.80;;;0.20;;
48987;SDS011;34799;51.440;-2.534;2022-11-15T07:25:22;2.97;;;0.28;;
48987;SDS011;34799;51.440;-2.534;2022-11-15T07:28:08;2.05;;;0.20;;
48987;SDS011;34799;51.440;-2.534;2022-11-15T07:30:54;1.52;;;0.10;;
48987;SDS011;34799;51.440;-2.534;2022-11-15T07:33:40;3.15;;;0.32;;
48987;SDS011;34799;51.440;-2.534;2022-11-15T07:36:27;1.42;;;0.10;;
48987;SDS011;34799;51.440;-2.534;2022-11-15T07:39:13;3.17;;;0.10;;
48987;SDS011;34799;51.440;-2.534;2022-11-15T07:41:59;1.43;;;0.20;;
48987;SDS011;34799;51.440;-2.534;2022-11-15T07:45:04;2.53;;;0.10;;
48987;SDS011;34799;51.440;-2.534;2022-11-15T07:47:51;4.93;;;0.40;;
48987;SDS011;34799;51.440;-2.534;2022-11-15T07:50:40;2.25;;;0.17;;
48987;SDS011;34799;51.440;-2.534;2022-11-15T07:53:28;1.55;;;0.10;;
48987;SDS011;34799;51.440;-2.534;2022-11-15T07:56:14;1.73;;;0.28;;
48987;SDS011;34799;51.440;-2.534;2022-11-15T07:59:00;1.43;;;0.10;;
48987;SDS011;34799;51.440;-2.534;2022-11-15T08:01:46;3.83;;;0.55;;
48987;SDS011;34799;51.440;-2.534;2022-11-15T08:04:33;3.00;;;0.32;;
48987;SDS011;34799;51.440;-2.534;2022-11-15T08:07:19;6.88;;;0.90;;
48987;SDS011;34799;51.440;-2.534;2022-11-15T08:10:06;2.47;;;0.10;;
48987;SDS011;34799;51.440;-2.534;2022-11-15T08:13:00;0.50;;;0.10;;
48987;SDS011;34799;51.440;-2.534;2022-11-15T08:15:48;0.73;;;0.00;;
48987;SDS011;34799;51.440;-2.534;2022-11-15T08:18:36;0.45;;;0.05;;
48987;SDS011;34799;51.440;-2.534;2022-11-15T08:21:24;1.20;;;0.00;;
48987;SDS011;34799;51.440;-2.534;2022-11-15T08:24:10;2.10;;;0.10;;
48987;SDS011;34799;51.440;-2.534;2022-11-15T08:26:56;1.05;;;0.10;;
48987;SDS011;34799;51.440;-2.534;2022-11-15T08:29:42;0.47;;;0.00;;
48987;SDS011;34799;51.440;-2.534;2022-11-15T08:32:30;0.45;;;0.00;;
48987;SDS011;34799;51.440;-2.534;2022-11-15T08:38:02;1.58;;;0.10;;
48987;SDS011;34799;51.440;-2.534;2022-11-15T08:40:50;1.27;;;0.00;;
48987;SDS011;34799;51.440;-2.534;2022-11-15T08:43:38;1.55;;;0.10;;
48987;SDS011;34799;51.440;-2.534;2022-11-15T08:46:24;3.63;;;0.10;;
48987;SDS011;34799;51.440;-2.534;2022-11-15T08:49:11;0.63;;;0.10;;
48987;SDS011;34799;51.440;-2.534;2022-11-15T08:51:57;0.85;;;0.00;;
48987;SDS011;34799;51.440;-2.534;2022-11-15T08:54:43;3.35;;;0.45;;
48987;SDS011;34799;51.440;-2.534;2022-11-15T08:57:29;0.20;;;0.00;;
48987;SDS011;34799;51.440;-2.534;2022-11-15T09:03:05;1.35;;;0.00;;
48987;SDS011;34799;51.440;-2.534;2022-11-15T09:05:56;0.35;;;0.00;;
48987;SDS011;34799;51.440;-2.534;2022-11-15T09:08:42;0.00;;;0.00;;
48987;SDS011;34799;51.440;-2.534;2022-11-15T09:11:31;0.10;;;0.00;;
48987;SDS011;34799;51.440;-2.534;2022-11-15T09:14:17;0.38;;;0.00;;
48987;SDS011;34799;51.440;-2.534;2022-11-15T09:17:07;1.75;;;0.10;;
48987;SDS011;34799;51.440;-2.534;2022-11-15T09:19:53;0.50;;;0.08;;
48987;SDS011;34799;51.440;-2.534;2022-11-15T09:22:39;1.92;;;0.05;;
48987;SDS011;34799;51.440;-2.534;2022-11-15T09:25:25;1.42;;;0.00;;
48987;SDS011;34799;51.440;-2.534;2022-11-15T09:30:58;2.83;;;0.00;;
48987;SDS011;34799;51.440;-2.534;2022-11-15T09:33:46;2.13;;;0.10;;
48987;SDS011;34799;51.440;-2.534;2022-11-15T09:36:33;1.45;;;0.10;;
48987;SDS011;34799;51.440;-2.534;2022-11-15T09:39:19;1.45;;;0.10;;
48987;SDS011;34799;51.440;-2.534;2022-11-15T09:45:28;2.47;;;0.15;;
48987;SDS011;34799;51.440;-2.534;2022-11-15T09:48:48;3.40;;;0.20;;
48987;SDS011;34799;51.440;-2.534;2022-11-15T09:51:41;1.83;;;0.10;;
48987;SDS011;34799;51.440;-2.534;2022-11-15T09:54:30;1.38;;;0.10;;
48987;SDS011;34799;51.440;-2.534;2022-11-15T10:00:21;0.63;;;0.13;;
48987;SDS011;34799;51.440;-2.534;2022-11-15T10:03:16;1.38;;;0.10;;
48987;SDS011;34799;51.440;-2.534;2022-11-15T10:05:51;2.70;;;0.20;;
48987;SDS011;34799;51.440;-2.534;2022-11-15T10:10:49;4.60;;;0.60;;
48987;SDS011;34799;51.440;-2.534;2022-11-15T10:13:26;1.85;;;0.20;;
48987;SDS011;34799;51.440;-2.534;2022-11-15T10:24:34;2.85;;;0.60;;
48987;SDS011;34799;51.440;-2.534;2022-11-15T10:27:15;3.03;;;0.15;;
48987;SDS011;34799;51.440;-2.534;2022-11-15T10:29:44;2.03;;;0.10;;
48987;SDS011;34799;51.440;-2.534;2022-11-15T10:32:15;2.15;;;0.22;;
48987;SDS011;34799;51.440;-2.534;2022-11-15T10:34:43;3.03;;;0.22;;
48987;SDS011;34799;51.440;-2.534;2022-11-15T10:37:10;5.35;;;0.30;;
48987;SDS011;34799;51.440;-2.534;2022-11-15T10:39:38;5.50;;;0.40;;
48987;SDS011;34799;51.440;-2.534;2022-11-15T10:42:26;2.10;;;0.93;;
48987;SDS011;34799;51.440;-2.534;2022-11-15T10:44:55;2.42;;;0.40;;
48987;SDS011;34799;51.440;-2.534;2022-11-15T10:47:29;5.95;;;0.50;;
48987;SDS011;34799;51.440;-2.534;2022-11-15T10:50:05;5.18;;;0.40;;
48987;SDS011;34799;51.440;-2.534;2022-11-15T10:52:51;1.98;;;0.30;;
48987;SDS011;34799;51.440;-2.534;2022-11-15T10:55:21;2.83;;;0.40;;
48987;SDS011;34799;51.440;-2.534;2022-11-15T10:57:50;5.25;;;0.28;;
48987;SDS011;34799;51.440;-2.534;2022-11-15T11:00:33;2.90;;;0.70;;
48987;SDS011;34799;51.440;-2.534;2022-11-15T11:03:33;4.18;;;0.40;;
48987;SDS011;34799;51.440;-2.534;2022-11-15T11:06:10;1.10;;;0.50;;
48987;SDS011;34799;51.440;-2.534;2022-11-15T11:08:37;5.30;;;0.63;;
48987;SDS011;34799;51.440;-2.534;2022-11-15T11:11:06;5.45;;;0.88;;
48987;SDS011;34799;51.440;-2.534;2022-11-15T11:16:09;7.05;;;0.60;;
48987;SDS011;34799;51.440;-2.534;2022-11-15T11:21:10;1.40;;;0.43;;
48987;SDS011;34799;51.440;-2.534;2022-11-15T11:23:47;3.65;;;0.43;;
48987;SDS011;34799;51.440;-2.534;2022-11-15T11:31:41;3.10;;;0.50;;
48987;SDS011;34799;51.440;-2.534;2022-11-15T11:45:33;3.83;;;0.50;;
48987;SDS011;34799;51.440;-2.534;2022-11-15T11:48:12;1.38;;;0.30;;
48987;SDS011;34799;51.440;-2.534;2022-11-15T11:50:45;5.40;;;0.20;;
48987;SDS011;34799;51.440;-2.534;2022-11-15T11:53:15;4.95;;;0.30;;
48987;SDS011;34799;51.440;-2.534;2022-11-15T11:55:49;4.82;;;0.55;;
48987;SDS011;34799;51.440;-2.534;2022-11-15T12:00:51;3.78;;;0.30;;
48987;SDS011;34799;51.440;-2.534;2022-11-15T12:17:21;2.33;;;0.32;;
48987;SDS011;34799;51.440;-2.534;2022-11-15T12:20:39;3.90;;;0.28;;
48987;SDS011;34799;51.440;-2.534;2022-11-15T12:22:53;3.63;;;0.43;;
48987;SDS011;34799;51.440;-2.534;2022-11-15T12:25:45;4.75;;;0.55;;
48987;SDS011;34799;51.440;-2.534;2022-11-15T12:28:48;6.32;;;0.63;;
48987;SDS011;34799;51.440;-2.534;2022-11-15T12:34:15;6.05;;;0.50;;
48987;SDS011;34799;51.440;-2.534;2022-11-15T12:40:16;13.75;;;0.93;;
48987;SDS011;34799;51.440;-2.534;2022-11-15T12:42:58;3.63;;;0.63;;
48987;SDS011;34799;51.440;-2.534;2022-11-15T12:45:35;4.35;;;0.30;;
48987;SDS011;34799;51.440;-2.534;2022-11-15T13:01:06;2.47;;;0.28;;
48987;SDS011;34799;51.440;-2.534;2022-11-15T13:03:35;6.38;;;0.60;;
48987;SDS011;34799;51.440;-2.534;2022-11-15T13:06:04;6.95;;;0.60;;
48987;SDS011;34799;51.440;-2.534;2022-11-15T13:08:42;6.38;;;0.45;;
48987;SDS011;34799;51.440;-2.534;2022-11-15T13:14:00;7.22;;;1.02;;
48987;SDS011;34799;51.440;-2.534;2022-11-15T13:16:28;8.20;;;0.68;;
48987;SDS011;34799;51.440;-2.534;2022-11-15T13:18:56;4.20;;;0.85;;
48987;SDS011;34799;51.440;-2.534;2022-11-15T13:21:25;10.15;;;0.60;;
48987;SDS011;34799;51.440;-2.534;2022-11-15T13:24:12;7.82;;;0.88;;
48987;SDS011;34799;51.440;-2.534;2022-11-15T13:26:40;5.38;;;0.70;;
48987;SDS011;34799;51.440;-2.534;2022-11-15T13:29:14;4.97;;;1.00;;
48987;SDS011;34799;51.440;-2.534;2022-11-15T13:31:43;7.63;;;1.15;;
48987;SDS011;34799;51.440;-2.534;2022-11-15T13:37:02;9.43;;;1.75;;
48987;SDS011;34799;51.440;-2.534;2022-11-15T13:39:33;8.15;;;1.25;;
48987;SDS011;34799;51.440;-2.534;2022-11-15T13:42:03;6.03;;;1.25;;
48987;SDS011;34799;51.440;-2.534;2022-11-15T13:44:32;11.40;;;1.05;;
48987;SDS011;34799;51.440;-2.534;2022-11-15T13:47:01;6.88;;;0.73;;
48987;SDS011;34799;51.440;-2.534;2022-11-15T13:49:33;4.72;;;0.47;;
48987;SDS011;34799;51.440;-2.534;2022-11-15T13:52:03;7.28;;;0.75;;
48987;SDS011;34799;51.440;-2.534;2022-11-15T13:57:10;10.05;;;0.80;;
48987;SDS011;34799;51.440;-2.534;2022-11-15T14:02:21;11.20;;;1.30;;
48987;SDS011;34799;51.440;-2.534;2022-11-15T14:05:37;10.80;;;0.80;;
48987;SDS011;34799;51.440;-2.534;2022-11-15T14:07:55;5.10;;;0.32;;
48987;SDS011;34799;51.440;-2.534;2022-11-15T14:10:30;10.15;;;0.93;;
48987;SDS011;34799;51.440;-2.534;2022-11-15T14:12:59;4.85;;;0.60;;
48987;SDS011;34799;51.440;-2.534;2022-11-15T14:15:38;9.27;;;0.90;;
48987;SDS011;34799;51.440;-2.534;2022-11-15T14:18:38;14.73;;;0.88;;
48987;SDS011;34799;51.440;-2.534;2022-11-15T14:21:12;10.70;;;0.88;;
48987;SDS011;34799;51.440;-2.534;2022-11-15T14:23:40;6.20;;;1.80;;
48987;SDS011;34799;51.440;-2.534;2022-11-15T14:26:25;10.00;;;0.50;;
48987;SDS011;34799;51.440;-2.534;2022-11-15T14:28:54;4.93;;;0.73;;
48987;SDS011;34799;51.440;-2.534;2022-11-15T14:31:21;5.65;;;0.73;;
48987;SDS011;34799;51.440;-2.534;2022-11-15T14:33:48;8.77;;;0.38;;
48987;SDS011;34799;51.440;-2.534;2022-11-15T14:36:18;5.43;;;0.70;;
48987;SDS011;34799;51.440;-2.534;2022-11-15T14:38:48;4.97;;;0.40;;
48987;SDS011;34799;51.440;-2.534;2022-11-15T14:43:45;3.22;;;0.20;;
48987;SDS011;34799;51.440;-2.534;2022-11-15T14:46:13;4.95;;;0.73;;
48987;SDS011;34799;51.440;-2.534;2022-11-15T14:48:41;5.50;;;0.30;;
48987;SDS011;34799;51.440;-2.534;2022-11-15T14:51:10;3.92;;;0.60;;
48987;SDS011;34799;51.440;-2.534;2022-11-15T14:53:39;7.70;;;0.55;;
48987;SDS011;34799;51.440;-2.534;2022-11-15T14:56:08;8.30;;;0.57;;
48987;SDS011;34799;51.440;-2.534;2022-11-15T14:58:35;4.38;;;0.95;;
48987;SDS011;34799;51.440;-2.534;2022-11-15T15:01:14;4.68;;;0.50;;
48987;SDS011;34799;51.440;-2.534;2022-11-15T15:03:48;4.72;;;0.63;;
48987;SDS011;34799;51.440;-2.534;2022-11-15T15:06:18;3.85;;;0.30;;
48987;SDS011;34799;51.440;-2.534;2022-11-15T15:08:46;3.83;;;0.40;;
48987;SDS011;34799;51.440;-2.534;2022-11-15T15:11:19;4.15;;;0.47;;
48987;SDS011;34799;51.440;-2.534;2022-11-15T15:13:50;4.70;;;0.47;;
48987;SDS011;34799;51.440;-2.534;2022-11-15T15:16:19;3.55;;;0.30;;
48987;SDS011;34799;51.440;-2.534;2022-11-15T15:18:47;2.75;;;0.30;;
48987;SDS011;34799;51.440;-2.534;2022-11-15T15:21:24;4.25;;;0.50;;
48987;SDS011;34799;51.440;-2.534;2022-11-15T15:24:01;4.77;;;0.40;;
48987;SDS011;34799;51.440;-2.534;2022-11-15T15:26:28;4.82;;;0.20;;
48987;SDS011;34799;51.440;-2.534;2022-11-15T15:28:56;2.67;;;0.25;;
48987;SDS011;34799;51.440;-2.534;2022-11-15T15:31:23;6.45;;;0.75;;
48987;SDS011;34799;51.440;-2.534;2022-11-15T15:33:51;7.18;;;0.85;;
48987;SDS011;34799;51.440;-2.534;2022-11-15T15:36:18;3.80;;;0.50;;
48987;SDS011;34799;51.440;-2.534;2022-11-15T15:38:46;7.32;;;0.43;;
48987;SDS011;34799;51.440;-2.534;2022-11-15T15:41:14;4.05;;;0.20;;
48987;SDS011;34799;51.440;-2.534;2022-11-15T15:43:43;3.83;;;0.40;;
48987;SDS011;34799;51.440;-2.534;2022-11-15T15:46:14;0.80;;;0.20;;
48987;SDS011;34799;51.440;-2.534;2022-11-15T15:48:43;4.80;;;0.73;;
48987;SDS011;34799;51.440;-2.534;2022-11-15T15:51:11;2.05;;;0.30;;
48987;SDS011;34799;51.440;-2.534;2022-11-15T15:53:44;2.47;;;0.38;;
48987;SDS011;34799;51.440;-2.534;2022-11-15T15:56:12;1.50;;;0.32;;
48987;SDS011;34799;51.440;-2.534;2022-11-15T15:58:39;3.22;;;0.40;;
48987;SDS011;34799;51.440;-2.534;2022-11-15T16:01:06;3.40;;;0.47;;
48987;SDS011;34799;51.440;-2.534;2022-11-15T16:03:36;2.75;;;0.32;;
48987;SDS011;34799;51.440;-2.534;2022-11-15T16:06:03;3.80;;;0.47;;
48987;SDS011;34799;51.440;-2.534;2022-11-15T16:08:31;4.18;;;0.30;;
48987;SDS011;34799;51.440;-2.534;2022-11-15T16:11:03;2.65;;;1.30;;
48987;SDS011;34799;51.440;-2.534;2022-11-15T16:13:32;6.47;;;2.30;;
48987;SDS011;34799;51.440;-2.534;2022-11-15T16:16:00;2.58;;;0.50;;
48987;SDS011;34799;51.440;-2.534;2022-11-15T16:18:28;4.32;;;0.70;;
48987;SDS011;34799;51.440;-2.534;2022-11-15T16:20:56;3.95;;;0.40;;
48987;SDS011;34799;51.440;-2.534;2022-11-15T16:23:23;2.97;;;0.55;;
48987;SDS011;34799;51.440;-2.534;2022-11-15T16:25:52;1.30;;;0.10;;
48987;SDS011;34799;51.440;-2.534;2022-11-15T16:28:28;6.72;;;0.32;;
48987;SDS011;34799;51.440;-2.534;2022-11-15T16:31:03;2.78;;;0.40;;
48987;SDS011;34799;51.440;-2.534;2022-11-15T16:33:31;6.03;;;0.40;;
48987;SDS011;34799;51.440;-2.534;2022-11-15T16:35:59;4.22;;;0.40;;
48987;SDS011;34799;51.440;-2.534;2022-11-15T16:38:27;3.03;;;0.43;;
48987;SDS011;34799;51.440;-2.534;2022-11-15T16:40:56;3.70;;;0.17;;
48987;SDS011;34799;51.440;-2.534;2022-11-15T16:43:23;6.25;;;0.75;;
48987;SDS011;34799;51.440;-2.534;2022-11-15T16:45:50;5.15;;;0.50;;
48987;SDS011;34799;51.440;-2.534;2022-11-15T16:50:49;10.35;;;0.95;;
48987;SDS011;34799;51.440;-2.534;2022-11-15T16:53:17;4.28;;;0.75;;
48987;SDS011;34799;51.440;-2.534;2022-11-15T16:55:44;6.75;;;0.30;;
48987;SDS011;34799;51.440;-2.534;2022-11-15T16:58:12;5.03;;;0.75;;
48987;SDS011;34799;51.440;-2.534;2022-11-15T17:00:40;13.30;;;5.13;;
48987;SDS011;34799;51.440;-2.534;2022-11-15T17:03:08;3.83;;;0.50;;
48987;SDS011;34799;51.440;-2.534;2022-11-15T17:05:35;17.45;;;2.10;;
48987;SDS011;34799;51.440;-2.534;2022-11-15T17:08:03;8.82;;;0.63;;
48987;SDS011;34799;51.440;-2.534;2022-11-15T17:10:32;4.75;;;0.40;;
48987;SDS011;34799;51.440;-2.534;2022-11-15T17:13:00;2.47;;;0.52;;
48987;SDS011;34799;51.440;-2.534;2022-11-15T17:15:27;6.05;;;0.73;;
48987;SDS011;34799;51.440;-2.534;2022-11-15T17:17:55;3.00;;;0.65;;
48987;SDS011;34799;51.440;-2.534;2022-11-15T17:20:24;5.70;;;0.40;;
48987;SDS011;34799;51.440;-2.534;2022-11-15T17:22:52;2.80;;;0.30;;
48987;SDS011;34799;51.440;-2.534;2022-11-15T17:25:20;4.35;;;0.20;;
48987;SDS011;34799;51.440;-2.534;2022-11-15T17:27:47;4.97;;;0.30;;
48987;SDS011;34799;51.440;-2.534;2022-11-15T17:30:16;0.40;;;0.10;;
48987;SDS011;34799;51.440;-2.534;2022-11-15T17:32:45;1.67;;;0.20;;
48987;SDS011;34799;51.440;-2.534;2022-11-15T17:35:13;2.30;;;0.38;;
48987;SDS011;34799;51.440;-2.534;2022-11-15T17:37:42;1.38;;;0.20;;
48987;SDS011;34799;51.440;-2.534;2022-11-15T17:40:10;2.25;;;0.20;;
48987;SDS011;34799;51.440;-2.534;2022-11-15T17:42:41;7.57;;;0.85;;
48987;SDS011;34799;51.440;-2.534;2022-11-15T17:45:09;5.28;;;0.43;;
48987;SDS011;34799;51.440;-2.534;2022-11-15T17:47:37;6.20;;;0.45;;
48987;SDS011;34799;51.440;-2.534;2022-11-15T17:50:04;3.95;;;0.20;;
48987;SDS011;34799;51.440;-2.534;2022-11-15T17:52:32;1.60;;;0.20;;
48987;SDS011;34799;51.440;-2.534;2022-11-15T17:55:01;3.03;;;0.20;;
48987;SDS011;34799;51.440;-2.534;2022-11-15T17:57:28;2.17;;;0.25;;
48987;SDS011;34799;51.440;-2.534;2022-11-15T17:59:56;1.95;;;0.20;;
48987;SDS011;34799;51.440;-2.534;2022-11-15T18:02:23;3.15;;;0.32;;
48987;SDS011;34799;51.440;-2.534;2022-11-15T18:04:50;1.85;;;0.50;;
48987;SDS011;34799;51.440;-2.534;2022-11-15T18:07:19;3.70;;;0.28;;
48987;SDS011;34799;51.440;-2.534;2022-11-15T18:09:46;1.27;;;0.38;;
48987;SDS011;34799;51.440;-2.534;2022-11-15T18:12:14;1.35;;;0.30;;
48987;SDS011;34799;51.440;-2.534;2022-11-15T18:14:43;4.28;;;0.75;;
48987;SDS011;34799;51.440;-2.534;2022-11-15T18:17:11;2.50;;;0.30;;
48987;SDS011;34799;51.440;-2.534;2022-11-15T18:19:38;3.55;;;0.32;;
48987;SDS011;34799;51.440;-2.534;2022-11-15T18:22:06;4.43;;;0.47;;